Time;durP1;ratioP1;P1;durP2;ratioP2;P2;SDS_P1;SDS_P2;PMS_P1;PMS_P2;Temp;Humidity;BMP_temperature;BMP_pressure;BME280_temperature;BME280_humidity;BME280_pressure;Samples;Min_cycle;Max_cycle;Signal;HPM_P1;HPM_P2
2020/12/09 00:01:56;;;;;;;119.45;46.65;;;0.10;99.90;;;;;;5108532;28;20070;-48
2020/12/09 00:04:22;;;;;;;132.98;49.10;;;0.20;99.90;;;;;;5092366;28;20027;-47
2020/12/09 00:06:49;;;;;;;121.18;47.63;;;0.20;99.90;;;;;;5108921;28;20039;-46
2020/12/09 00:09:17;;;;;;;125.90;49.00;;;0.30;99.90;;;;;;5118549;28;20032;-47
2020/12/09 00:11:43;;;;;;;124.80;50.42;;;0.30;99.90;;;;;;5107693;28;20467;-46
2020/12/09 00:14:09;;;;;;;129.82;51.53;;;0.50;99.90;;;;;;5112324;28;20031;-45
2020/12/09 00:16:36;;;;;;;138.25;58.30;;;0.50;99.90;;;;;;5112220;27;20106;-47
2020/12/09 00:19:03;;;;;;;143.35;61.35;;;0.60;99.90;;;;;;5107723;27;20051;-47
2020/12/09 00:21:33;;;;;;;146.07;61.70;;;0.70;99.90;;;;;;5092132;28;20050;-46
2020/12/09 00:23:59;;;;;;;133.27;58.22;;;0.70;99.90;;;;;;5110295;28;20139;-46
2020/12/09 00:26:26;;;;;;;126.97;54.15;;;0.90;99.90;;;;;;5111088;28;20051;-46
2020/12/09 00:28:53;;;;;;;149.10;57.47;;;1.00;99.90;;;;;;5110997;28;20362;-46
2020/12/09 00:31:22;;;;;;;145.00;54.70;;;1.00;99.90;;;;;;5111442;27;20092;-48
2020/12/09 00:33:49;;;;;;;133.07;52.75;;;1.10;99.90;;;;;;5103412;27;20465;-47
2020/12/09 00:36:19;;;;;;;125.80;52.90;;;1.10;99.90;;;;;;5091543;28;20032;-47
2020/12/09 00:38:46;;;;;;;131.77;49.83;;;1.20;99.90;;;;;;5110585;28;20485;-47
2020/12/09 00:41:16;;;;;;;116.07;51.40;;;1.20;99.90;;;;;;5112004;28;20031;-46
2020/12/09 00:43:42;;;;;;;133.93;52.78;;;1.30;99.90;;;;;;5111715;28;20081;-48
2020/12/09 00:46:08;;;;;;;97.90;47.85;;;1.30;99.90;;;;;;5101409;28;20044;-49
2020/12/09 00:48:33;;;;;;;92.32;41.95;;;1.30;99.90;;;;;;5104295;27;20020;-47
2020/12/09 00:51:00;;;;;;;111.18;43.65;;;1.40;99.90;;;;;;5109864;28;20123;-45
2020/12/09 00:53:26;;;;;;;95.53;40.65;;;1.40;99.90;;;;;;5111222;28;20727;-46
2020/12/09 00:55:53;;;;;;;94.95;41.88;;;1.40;99.90;;;;;;5111695;28;20036;-46
2020/12/09 00:58:19;;;;;;;87.18;37.30;;;1.40;99.90;;;;;;5110914;28;20065;-46
2020/12/09 01:00:45;;;;;;;87.22;35.05;;;1.50;99.90;;;;;;5111601;28;20036;-47
2020/12/09 01:03:11;;;;;;;73.00;30.90;;;1.90;99.90;;;;;;5108277;28;20075;-46
2020/12/09 01:05:36;;;;;;;62.05;29.02;;;2.20;99.90;;;;;;5108003;28;20051;-47
2020/12/09 01:08:03;;;;;;;61.42;23.65;;;2.60;99.90;;;;;;5111325;28;20036;-47
2020/12/09 01:10:28;;;;;;;47.40;19.80;;;2.90;99.90;;;;;;5111473;28;20036;-46
2020/12/09 01:12:54;;;;;;;52.63;17.65;;;3.40;99.90;;;;;;5111269;28;20030;-47
2020/12/09 01:15:20;;;;;;;43.90;16.27;;;3.80;99.90;;;;;;5111304;28;20088;-45
2020/12/09 01:17:46;;;;;;;41.22;15.27;;;4.10;99.90;;;;;;5111347;28;20473;-46
2020/12/09 01:20:11;;;;;;;42.28;16.50;;;4.40;99.90;;;;;;5094030;27;20028;-46
2020/12/09 01:22:37;;;;;;;43.80;15.02;;;4.60;99.90;;;;;;5092539;28;20028;-46
2020/12/09 01:25:03;;;;;;;37.90;14.95;;;4.70;99.90;;;;;;5110553;28;20050;-46
2020/12/09 01:27:29;;;;;;;34.70;14.23;;;4.90;99.90;;;;;;5110204;28;20023;-47
2020/12/09 01:29:55;;;;;;;41.72;14.57;;;4.90;99.90;;;;;;5110587;28;20553;-47
2020/12/09 01:32:21;;;;;;;39.80;14.75;;;4.90;99.90;;;;;;5109994;28;20701;-47
2020/12/09 01:34:46;;;;;;;33.50;13.43;;;5.00;99.90;;;;;;5098626;28;20044;-46
2020/12/09 01:37:12;;;;;;;39.72;14.25;;;5.00;99.90;;;;;;5095662;28;20147;-46
2020/12/09 01:39:39;;;;;;;43.17;14.85;;;5.10;99.90;;;;;;5110733;28;20157;-46
2020/12/09 01:42:05;;;;;;;36.65;15.00;;;5.10;99.90;;;;;;5110442;28;20087;-46
2020/12/09 01:44:31;;;;;;;34.03;12.43;;;5.10;99.90;;;;;;5110018;28;20059;-47
2020/12/09 01:47:01;;;;;;;42.30;12.55;;;5.10;99.90;;;;;;5109227;28;20027;-48
2020/12/09 01:49:27;;;;;;;30.60;11.27;;;5.10;99.90;;;;;;5101407;27;20031;-46
2020/12/09 01:51:53;;;;;;;32.33;10.43;;;5.10;99.90;;;;;;5089739;28;20032;-48
2020/12/09 01:54:18;;;;;;;29.30;11.32;;;5.20;99.90;;;;;;5106642;28;20039;-45
2020/12/09 01:56:44;;;;;;;22.40;9.90;;;5.20;99.90;;;;;;5110076;28;20346;-46
2020/12/09 01:59:10;;;;;;;23.25;10.32;;;5.20;99.90;;;;;;5110233;28;20028;-46
2020/12/09 02:01:36;;;;;;;25.90;9.95;;;5.20;99.90;;;;;;5109848;28;20031;-46
2020/12/09 02:04:02;;;;;;;30.48;11.20;;;5.20;99.90;;;;;;5106513;27;20023;-46
2020/12/09 02:06:27;;;;;;;30.88;11.45;;;5.10;99.90;;;;;;5089828;28;20047;-46
2020/12/09 02:08:54;;;;;;;29.15;10.80;;;5.10;99.90;;;;;;5109465;28;20035;-46
2020/12/09 02:11:20;;;;;;;33.95;10.70;;;5.10;99.90;;;;;;5109908;28;20557;-46
2020/12/09 02:13:46;;;;;;;33.22;10.07;;;5.10;99.90;;;;;;5109636;28;20107;-46
2020/12/09 02:16:17;;;;;;;27.13;10.15;;;5.10;99.90;;;;;;5109452;28;20102;-46
2020/12/09 02:18:44;;;;;;;22.35;9.35;;;5.10;99.90;;;;;;5109442;28;20027;-46
2020/12/09 02:21:10;;;;;;;26.45;11.43;;;5.10;99.90;;;;;;5090363;28;20031;-46
2020/12/09 02:23:36;;;;;;;30.13;10.00;;;5.00;99.90;;;;;;5099241;28;20408;-46
2020/12/09 02:26:03;;;;;;;29.23;10.68;;;4.90;99.90;;;;;;5109529;28;20071;-45
2020/12/09 02:28:28;;;;;;;29.25;10.23;;;4.90;99.90;;;;;;5109202;28;20061;-46
2020/12/09 02:30:54;;;;;;;29.55;9.80;;;4.80;99.90;;;;;;5101758;27;20520;-46
2020/12/09 02:33:20;;;;;;;25.77;9.27;;;4.80;99.90;;;;;;5089585;28;20409;-46
2020/12/09 02:35:45;;;;;;;24.95;8.77;;;4.90;99.90;;;;;;5089756;28;20123;-46
2020/12/09 02:38:11;;;;;;;30.80;8.90;;;4.90;99.90;;;;;;5102960;28;20059;-46
2020/12/09 02:40:39;;;;;;;29.00;9.18;;;4.90;99.90;;;;;;5109715;28;20108;-47
2020/12/09 02:43:05;;;;;;;20.67;8.45;;;4.90;99.90;;;;;;5109967;28;20042;-47
2020/12/09 02:45:30;;;;;;;25.45;8.57;;;5.00;99.90;;;;;;5107976;28;20040;-46
2020/12/09 02:47:56;;;;;;;21.52;7.22;;;5.10;99.90;;;;;;5110575;28;20023;-46
2020/12/09 02:50:21;;;;;;;25.92;6.97;;;5.20;99.90;;;;;;5110106;28;20030;-46
2020/12/09 02:52:47;;;;;;;19.92;7.38;;;5.30;99.90;;;;;;5110679;28;20466;-46
2020/12/09 02:55:13;;;;;;;22.80;6.55;;;5.40;99.90;;;;;;5110366;28;20092;-46
2020/12/09 02:57:38;;;;;;;21.48;6.05;;;5.40;99.90;;;;;;5109877;28;20699;-47
2020/12/09 03:00:05;;;;;;;28.05;7.13;;;5.40;99.90;;;;;;5110463;28;20031;-47
2020/12/09 03:02:31;;;;;;;26.77;6.93;;;5.40;99.90;;;;;;5109901;28;20042;-46
2020/12/09 03:04:57;;;;;;;17.55;6.75;;;5.40;99.90;;;;;;5110143;28;20036;-46
2020/12/09 03:07:22;;;;;;;19.95;6.72;;;5.40;99.90;;;;;;5109958;28;20032;-49
2020/12/09 03:09:48;;;;;;;27.02;7.30;;;5.20;99.90;;;;;;5110649;28;20115;-46
2020/12/09 03:12:14;;;;;;;21.63;6.20;;;5.20;99.90;;;;;;5110282;28;20120;-46
2020/12/09 03:14:39;;;;;;;25.00;7.18;;;5.10;99.90;;;;;;5110222;28;20027;-46
2020/12/09 03:17:05;;;;;;;23.13;6.65;;;5.20;99.90;;;;;;5109625;28;20024;-46
2020/12/09 03:19:30;;;;;;;28.38;7.03;;;5.10;99.90;;;;;;5109777;28;20381;-46
2020/12/09 03:21:56;;;;;;;15.90;6.75;;;5.10;99.90;;;;;;5110045;28;20038;-46
2020/12/09 03:24:22;;;;;;;19.30;6.53;;;5.00;99.90;;;;;;5110273;28;20031;-46
2020/12/09 03:26:48;;;;;;;20.02;6.85;;;5.00;99.90;;;;;;5109496;28;20126;-45
2020/12/09 03:29:14;;;;;;;20.80;5.97;;;4.90;99.90;;;;;;5110401;28;20055;-46
2020/12/09 03:31:39;;;;;;;22.58;6.47;;;4.80;99.90;;;;;;5103129;28;20142;-47
2020/12/09 03:34:05;;;;;;;17.02;5.78;;;4.80;99.90;;;;;;5090045;28;20063;-48
2020/12/09 03:36:31;;;;;;;22.58;5.65;;;4.80;99.90;;;;;;5092022;28;20648;-47
2020/12/09 03:38:56;;;;;;;20.02;6.43;;;4.80;99.90;;;;;;5096977;28;20028;-47
2020/12/09 03:41:22;;;;;;;20.83;6.45;;;4.80;99.90;;;;;;5100075;28;20465;-46
2020/12/09 03:43:47;;;;;;;36.45;7.07;;;4.90;99.90;;;;;;5097828;28;20036;-46
2020/12/09 03:46:13;;;;;;;26.30;6.53;;;4.90;99.90;;;;;;5103675;28;20031;-45
2020/12/09 03:48:39;;;;;;;25.75;6.47;;;4.90;99.90;;;;;;5103482;28;20035;-45
2020/12/09 03:51:05;;;;;;;22.20;6.20;;;4.90;99.90;;;;;;5108692;28;20041;-45
2020/12/09 03:53:32;;;;;;;25.85;7.10;;;5.00;99.90;;;;;;5109706;28;20080;-45
2020/12/09 03:55:59;;;;;;;30.80;8.10;;;5.00;99.90;;;;;;5106935;28;20020;-46
2020/12/09 03:58:24;;;;;;;22.88;6.90;;;5.00;99.90;;;;;;5100773;28;20715;-47
2020/12/09 04:00:50;;;;;;;23.73;7.15;;;5.00;99.90;;;;;;5089326;28;20035;-47
2020/12/09 04:03:16;;;;;;;39.00;7.07;;;5.00;99.90;;;;;;5098136;28;20063;-46
2020/12/09 04:05:41;;;;;;;29.45;6.93;;;5.00;99.90;;;;;;5101011;28;20051;-47
2020/12/09 04:08:07;;;;;;;35.80;7.43;;;4.90;99.90;;;;;;5090870;28;20044;-46
2020/12/09 04:10:32;;;;;;;37.28;7.88;;;4.90;99.90;;;;;;5100121;28;20104;-48
2020/12/09 04:12:58;;;;;;;26.65;7.05;;;4.90;99.90;;;;;;5087640;28;20119;-47
2020/12/09 04:15:24;;;;;;;28.08;7.38;;;4.90;99.90;;;;;;5104273;28;20028;-47
2020/12/09 04:17:49;;;;;;;40.38;7.30;;;4.80;99.90;;;;;;5109112;28;20023;-48
2020/12/09 04:20:15;;;;;;;38.85;7.57;;;4.80;99.90;;;;;;5108420;28;20076;-45
2020/12/09 04:22:41;;;;;;;27.88;7.20;;;4.70;99.90;;;;;;5108761;28;20024;-45
2020/12/09 04:25:07;;;;;;;27.88;7.40;;;4.80;99.90;;;;;;5108718;28;20036;-46
2020/12/09 04:27:32;;;;;;;38.28;7.40;;;4.80;99.90;;;;;;5109133;28;20067;-44
2020/12/09 04:29:58;;;;;;;35.03;7.22;;;4.80;99.90;;;;;;5107370;28;20738;-44
2020/12/09 04:32:24;;;;;;;28.73;6.30;;;4.80;99.90;;;;;;5108326;28;20462;-45
2020/12/09 04:34:50;;;;;;;37.38;7.60;;;4.90;99.90;;;;;;5106196;28;20070;-45
2020/12/09 04:37:20;;;;;;;27.67;7.47;;;4.90;99.90;;;;;;5088499;28;20378;-44
2020/12/09 04:39:46;;;;;;;34.97;7.10;;;4.90;99.90;;;;;;5088742;28;20039;-45
2020/12/09 04:42:17;;;;;;;27.50;6.78;;;4.90;99.90;;;;;;5088830;28;20030;-45
2020/12/09 04:44:44;;;;;;;34.47;6.63;;;4.90;99.90;;;;;;5101706;28;20038;-44
2020/12/09 04:47:18;;;;;;;23.77;6.72;;;4.90;99.90;;;;;;5108036;28;20030;-47
2020/12/09 04:49:48;;;;;;;31.00;6.05;;;4.90;99.90;;;;;;5108123;28;20611;-45
2020/12/09 04:52:30;;;;;;;29.50;7.32;;;5.00;99.90;;;;;;5108480;28;20051;-45
2020/12/09 04:55:08;;;;;;;35.97;5.78;;;5.10;99.90;;;;;;5105698;28;20024;-45
2020/12/09 04:57:37;;;;;;;27.73;6.20;;;5.20;99.90;;;;;;5088724;28;20025;-45
2020/12/09 05:00:21;;;;;;;29.13;5.93;;;5.20;99.90;;;;;;5092732;28;20527;-45
2020/12/09 05:02:54;;;;;;;26.80;4.78;;;5.30;99.90;;;;;;5111748;28;20044;-45
2020/12/09 05:05:21;;;;;;;45.03;6.67;;;5.30;99.90;;;;;;5103438;28;20040;-45
2020/12/09 05:07:53;;;;;;;23.08;4.80;;;5.30;99.90;;;;;;5091269;28;20876;-45
2020/12/09 05:10:23;;;;;;;26.20;5.82;;;5.40;99.90;;;;;;5101653;28;20166;-44
2020/12/09 05:12:54;;;;;;;30.13;5.80;;;5.30;99.90;;;;;;5098003;28;20065;-45
2020/12/09 05:15:21;;;;;;;28.77;5.55;;;5.30;99.90;;;;;;5101280;28;20032;-44
2020/12/09 05:18:09;;;;;;;30.08;5.35;;;5.40;99.90;;;;;;5099217;27;20032;-44
2020/12/09 05:20:40;;;;;;;27.38;5.15;;;5.30;99.90;;;;;;5101422;28;20035;-44
2020/12/09 05:23:08;;;;;;;24.88;5.20;;;5.40;99.90;;;;;;5091174;28;20692;-45
2020/12/09 05:25:35;;;;;;;25.70;5.13;;;5.40;99.90;;;;;;5091419;28;20157;-46
2020/12/09 05:28:01;;;;;;;29.35;5.63;;;5.40;99.90;;;;;;5091551;28;20491;-44
2020/12/09 05:30:44;;;;;;;35.47;5.13;;;5.50;99.90;;;;;;5090670;28;20028;-44
2020/12/09 05:33:15;;;;;;;19.17;4.87;;;5.40;99.90;;;;;;5098907;28;20027;-45
2020/12/09 05:35:41;;;;;;;35.80;5.15;;;5.40;99.90;;;;;;5101107;28;20040;-45
2020/12/09 05:38:16;;;;;;;19.00;4.78;;;5.30;99.90;;;;;;5090667;28;20405;-45
2020/12/09 05:40:43;;;;;;;23.70;4.93;;;5.30;99.90;;;;;;5092252;28;20395;-46
2020/12/09 05:43:10;;;;;;;32.42;5.07;;;5.30;99.90;;;;;;5091144;28;20038;-46
2020/12/09 05:45:36;;;;;;;27.15;6.22;;;5.20;99.90;;;;;;5091062;28;20046;-45
2020/12/09 05:48:18;;;;;;;25.42;4.70;;;5.20;99.90;;;;;;5089463;27;20024;-46
2020/12/09 05:50:59;;;;;;;28.48;5.28;;;5.20;99.90;;;;;;5090271;28;20156;-44
2020/12/09 05:53:29;;;;;;;22.92;4.40;;;5.20;99.90;;;;;;5095044;28;20035;-45
2020/12/09 05:56:15;;;;;;;34.17;5.28;;;5.10;99.90;;;;;;5105259;28;20034;-44
2020/12/09 05:58:43;;;;;;;40.97;5.03;;;5.10;99.90;;;;;;5109390;27;20023;-44
2020/12/09 06:01:19;;;;;;;20.58;4.60;;;5.00;99.90;;;;;;5110773;28;20024;-44
2020/12/09 06:03:49;;;;;;;27.45;4.32;;;4.90;99.90;;;;;;5091283;27;20051;-45
2020/12/09 06:06:24;;;;;;;22.40;3.83;;;4.80;99.90;;;;;;5109603;28;20046;-46
2020/12/09 06:09:00;;;;;;;43.80;7.38;;;4.70;99.90;;;;;;5102238;28;20031;-44
2020/12/09 06:11:32;;;;;;;22.90;3.92;;;4.70;99.90;;;;;;5098959;28;20654;-45
2020/12/09 06:13:59;;;;;;;24.70;4.30;;;4.60;99.90;;;;;;5101343;28;20028;-45
2020/12/09 06:16:25;;;;;;;22.42;4.78;;;4.50;99.90;;;;;;5088915;27;20129;-45
2020/12/09 06:18:55;;;;;;;22.95;4.85;;;4.60;99.90;;;;;;5107894;28;20568;-45
2020/12/09 06:21:22;;;;;;;22.98;4.38;;;4.50;99.90;;;;;;5105824;28;20036;-45
2020/12/09 06:23:49;;;;;;;23.92;5.45;;;4.40;99.90;;;;;;5097103;28;20563;-45
2020/12/09 06:26:15;;;;;;;22.25;4.68;;;4.40;99.90;;;;;;5097440;28;20113;-46
2020/12/09 06:28:59;;;;;;;29.30;4.72;;;4.50;99.90;;;;;;5104756;28;20035;-45
2020/12/09 06:31:25;;;;;;;23.40;4.32;;;4.60;99.90;;;;;;5109525;28;20039;-45
2020/12/09 06:33:53;;;;;;;29.30;4.47;;;4.50;99.90;;;;;;5108802;28;20028;-45
2020/12/09 06:36:21;;;;;;;21.85;5.22;;;4.60;99.90;;;;;;5094225;28;20444;-45
2020/12/09 06:39:11;;;;;;;34.15;4.07;;;4.50;99.90;;;;;;5106918;28;20039;-46
2020/12/09 06:41:56;;;;;;;19.08;4.60;;;4.60;99.90;;;;;;5100097;28;20039;-44
2020/12/09 06:44:28;;;;;;;33.67;4.55;;;4.60;99.90;;;;;;5101597;28;20047;-45
2020/12/09 06:46:54;;;;;;;33.13;5.13;;;4.60;99.90;;;;;;5105311;28;20147;-44
2020/12/09 06:49:32;;;;;;;24.95;4.30;;;4.60;99.90;;;;;;5097851;28;20118;-44
2020/12/09 06:51:59;;;;;;;32.22;5.72;;;4.60;99.90;;;;;;5098285;28;20089;-45
2020/12/09 06:54:45;;;;;;;23.50;3.90;;;4.60;99.90;;;;;;5097341;28;20042;-46
2020/12/09 06:57:29;;;;;;;25.08;4.15;;;4.60;99.90;;;;;;5099770;28;20054;-45
2020/12/09 07:00:19;;;;;;;25.88;4.50;;;4.50;99.90;;;;;;5098697;28;20028;-45
2020/12/09 07:02:47;;;;;;;25.38;4.57;;;4.50;99.90;;;;;;5099082;28;20070;-45
2020/12/09 07:05:26;;;;;;;20.58;4.60;;;4.60;99.90;;;;;;5095538;28;20058;-45
2020/12/09 07:07:58;;;;;;;33.45;4.45;;;4.70;99.90;;;;;;5103995;28;20028;-44
2020/12/09 07:10:25;;;;;;;24.83;3.95;;;4.90;99.90;;;;;;5098525;28;20032;-44
2020/12/09 07:13:09;;;;;;;26.80;4.50;;;4.90;99.90;;;;;;5099438;28;20039;-44
2020/12/09 07:15:40;;;;;;;23.73;4.57;;;4.90;99.90;;;;;;5096028;28;20028;-44
2020/12/09 07:18:06;;;;;;;34.72;5.40;;;5.00;99.90;;;;;;5103107;28;20024;-45
2020/12/09 07:20:34;;;;;;;20.60;3.25;;;5.10;99.90;;;;;;5107625;27;20105;-44
2020/12/09 07:23:03;;;;;;;26.35;3.95;;;5.20;99.90;;;;;;5107926;28;20088;-44
2020/12/09 07:25:29;;;;;;;29.63;4.32;;;5.20;99.90;;;;;;5107375;28;20399;-44
2020/12/09 07:27:55;;;;;;;26.05;3.85;;;5.30;99.90;;;;;;5104506;28;20039;-44
2020/12/09 07:30:22;;;;;;;28.63;3.75;;;5.30;99.90;;;;;;5099740;28;20055;-44
2020/12/09 07:32:49;;;;;;;26.05;4.30;;;5.20;99.90;;;;;;5094675;28;20833;-44
2020/12/09 07:35:17;;;;;;;42.10;4.65;;;5.30;99.90;;;;;;5087422;27;20402;-44
2020/12/09 07:37:47;;;;;;;30.75;4.03;;;5.30;99.90;;;;;;5093508;28;20469;-45
2020/12/09 07:40:33;;;;;;;20.88;3.50;;;5.30;99.90;;;;;;5095949;28;20024;-45
2020/12/09 07:43:10;;;;;;;20.13;3.00;;;5.40;99.90;;;;;;5089994;28;20036;-45
2020/12/09 07:45:41;;;;;;;17.70;3.33;;;5.40;99.90;;;;;;5086505;28;20080;-48
2020/12/09 07:48:11;;;;;;;21.13;3.40;;;5.30;99.90;;;;;;5090030;28;20028;-44
2020/12/09 07:50:38;;;;;;;23.83;3.58;;;5.30;99.90;;;;;;5099776;28;20370;-45
2020/12/09 07:53:09;;;;;;;22.15;3.67;;;5.40;99.90;;;;;;5087455;28;20077;-44
2020/12/09 07:55:35;;;;;;;17.35;4.35;;;5.40;99.90;;;;;;5104069;28;20028;-45
2020/12/09 07:58:09;;;;;;;13.77;3.47;;;5.50;99.90;;;;;;5093585;28;20039;-44
2020/12/09 08:00:39;;;;;;;28.35;4.35;;;5.60;99.90;;;;;;5104106;28;20046;-44
2020/12/09 08:03:05;;;;;;;23.45;3.70;;;5.50;99.90;;;;;;5092727;28;20119;-45
2020/12/09 08:05:37;;;;;;;25.70;3.83;;;5.40;99.90;;;;;;5087057;28;20032;-44
2020/12/09 08:08:10;;;;;;;18.77;3.22;;;5.40;99.90;;;;;;5093648;28;20102;-44
2020/12/09 08:10:36;;;;;;;24.33;3.67;;;5.40;99.90;;;;;;5098817;28;20398;-44
2020/12/09 08:13:11;;;;;;;22.23;3.92;;;5.40;99.90;;;;;;5096959;28;20080;-45
2020/12/09 08:15:40;;;;;;;22.30;3.75;;;5.40;99.90;;;;;;5092934;28;20054;-45
2020/12/09 08:18:06;;;;;;;22.52;3.72;;;5.40;99.90;;;;;;5101627;28;20107;-46
2020/12/09 08:20:46;;;;;;;20.33;3.20;;;5.40;99.90;;;;;;5118916;28;20421;-45
2020/12/09 08:23:11;;;;;;;18.40;3.22;;;5.40;99.90;;;;;;5106656;28;20089;-45
2020/12/09 08:25:53;;;;;;;21.00;3.53;;;5.40;99.90;;;;;;5112714;28;20043;-45
2020/12/09 08:28:21;;;;;;;22.15;3.75;;;5.50;99.90;;;;;;5103252;28;20039;-44
2020/12/09 08:30:48;;;;;;;25.52;4.15;;;5.60;99.90;;;;;;5119494;28;20030;-45
2020/12/09 08:33:13;;;;;;;23.92;3.78;;;5.70;99.90;;;;;;5109861;28;20027;-44
2020/12/09 08:36:06;;;;;;;22.92;3.85;;;5.70;99.90;;;;;;5108947;27;20077;-45
2020/12/09 08:38:41;;;;;;;20.23;3.33;;;5.90;99.90;;;;;;5106217;28;20135;-44
2020/12/09 08:41:09;;;;;;;32.28;4.00;;;5.90;99.90;;;;;;5111778;28;20295;-45
2020/12/09 08:43:36;;;;;;;21.02;2.92;;;6.00;99.90;;;;;;5108480;28;20067;-44
2020/12/09 08:46:04;;;;;;;26.30;3.63;;;6.00;99.90;;;;;;5111333;28;20084;-45
2020/12/09 08:48:32;;;;;;;14.77;2.78;;;6.20;99.90;;;;;;5111257;28;20047;-46
2020/12/09 08:50:59;;;;;;;22.70;3.10;;;6.20;99.90;;;;;;5111123;28;20517;-45
2020/12/09 08:53:24;;;;;;;25.83;3.55;;;6.30;99.90;;;;;;5110994;28;20046;-44
2020/12/09 08:55:50;;;;;;;24.60;3.60;;;6.30;99.90;;;;;;5106022;28;20466;-44
2020/12/09 08:58:17;;;;;;;28.13;4.28;;;6.40;99.90;;;;;;5103350;28;20363;-46
2020/12/09 09:00:44;;;;;;;27.80;3.58;;;6.40;99.90;;;;;;5110108;28;20032;-44
2020/12/09 09:03:17;;;;;;;19.65;3.72;;;6.40;99.90;;;;;;5110119;28;20397;-45
2020/12/09 09:05:45;;;;;;;46.10;7.13;;;6.50;99.90;;;;;;5110337;28;20039;-44
2020/12/09 09:08:11;;;;;;;28.80;3.70;;;6.50;99.90;;;;;;5110041;28;20070;-45
2020/12/09 09:10:37;;;;;;;19.25;3.28;;;6.50;99.90;;;;;;5108198;28;20035;-45
2020/12/09 09:13:04;;;;;;;31.45;3.47;;;6.50;99.90;;;;;;5099419;28;20034;-44
2020/12/09 09:15:29;;;;;;;22.63;4.95;;;6.50;99.90;;;;;;5098474;28;20047;-45
2020/12/09 09:17:55;;;;;;;22.17;3.63;;;6.40;99.90;;;;;;5100661;28;20035;-46
2020/12/09 09:20:21;;;;;;;24.95;3.65;;;6.40;99.90;;;;;;5108985;28;20470;-46
2020/12/09 09:22:47;;;;;;;26.20;3.33;;;6.40;99.90;;;;;;5109867;28;20027;-45
2020/12/09 09:25:13;;;;;;;25.33;4.22;;;6.50;99.90;;;;;;5109741;28;20048;-46
2020/12/09 09:27:38;;;;;;;18.20;3.47;;;6.50;99.90;;;;;;5110062;28;20056;-46
2020/12/09 09:30:06;;;;;;;18.27;3.13;;;6.60;99.90;;;;;;5105291;28;20476;-45
2020/12/09 09:32:32;;;;;;;27.83;3.53;;;6.60;99.90;;;;;;5108922;28;20537;-46
2020/12/09 09:34:57;;;;;;;25.02;4.28;;;6.70;99.90;;;;;;5107671;28;20118;-47
2020/12/09 09:37:24;;;;;;;27.48;4.15;;;6.70;99.90;;;;;;5108097;27;20055;-46
2020/12/09 09:39:51;;;;;;;22.60;3.97;;;6.80;99.90;;;;;;5108002;28;20427;-46
2020/12/09 09:42:18;;;;;;;21.73;3.75;;;6.80;99.90;;;;;;5108632;28;20038;-47
2020/12/09 09:44:48;;;;;;;18.08;3.30;;;6.80;99.90;;;;;;5109821;28;20093;-45
2020/12/09 09:47:13;;;;;;;19.83;3.65;;;6.90;99.90;;;;;;5107519;28;20038;-45
2020/12/09 09:49:40;;;;;;;33.83;9.13;;;7.00;99.90;;;;;;5108698;28;20327;-46
2020/12/09 09:52:06;;;;;;;35.85;7.05;;;7.10;99.90;;;;;;5106505;28;20669;-46
2020/12/09 09:54:32;;;;;;;19.98;3.72;;;7.20;99.90;;;;;;5108688;28;20489;-45
2020/12/09 09:56:58;;;;;;;21.75;4.28;;;7.20;99.90;;;;;;5108658;28;20058;-46
2020/12/09 09:59:24;;;;;;;18.25;3.70;;;7.20;99.90;;;;;;5109599;28;20106;-45
2020/12/09 10:01:51;;;;;;;14.75;3.08;;;7.20;99.90;;;;;;5110162;28;20035;-46
2020/12/09 10:04:17;;;;;;;24.25;3.80;;;7.30;99.90;;;;;;5110223;28;20110;-46
2020/12/09 10:06:43;;;;;;;21.65;3.58;;;7.30;99.90;;;;;;5110417;28;20463;-46
2020/12/09 10:09:09;;;;;;;23.75;3.10;;;7.40;99.90;;;;;;5110176;28;20039;-45
2020/12/09 10:11:39;;;;;;;26.15;3.80;;;7.40;99.90;;;;;;5109613;28;20636;-44
2020/12/09 10:14:09;;;;;;;19.17;4.40;;;7.50;99.90;;;;;;5109541;28;20496;-45
2020/12/09 10:16:36;;;;;;;17.33;2.80;;;7.40;99.90;;;;;;5109590;28;20046;-46
2020/12/09 10:19:03;;;;;;;20.20;3.78;;;7.50;99.90;;;;;;5109411;28;20055;-47
2020/12/09 10:21:31;;;;;;;16.52;3.42;;;7.40;99.90;;;;;;5109751;28;20591;-45
2020/12/09 10:23:58;;;;;;;20.73;3.60;;;7.40;99.90;;;;;;5109843;28;20081;-46
2020/12/09 10:26:38;;;;;;;18.50;3.78;;;7.30;99.90;;;;;;5109223;28;20036;-45
2020/12/09 10:29:08;;;;;;;23.33;4.15;;;7.30;99.90;;;;;;5107924;28;20384;-45
2020/12/09 10:31:42;;;;;;;21.27;4.25;;;7.20;99.90;;;;;;5108723;28;20440;-45
2020/12/09 10:34:09;;;;;;;20.30;3.70;;;7.20;99.90;;;;;;5105205;28;20028;-46
2020/12/09 10:36:36;;;;;;;21.65;4.20;;;7.20;99.90;;;;;;5088459;28;20044;-45
2020/12/09 10:39:04;;;;;;;20.98;3.75;;;7.20;99.90;;;;;;5107767;28;20035;-46
2020/12/09 10:41:30;;;;;;;24.27;4.05;;;7.20;99.90;;;;;;5107835;28;20038;-46
2020/12/09 10:43:56;;;;;;;18.85;4.22;;;7.20;99.90;;;;;;5108435;28;20031;-43
2020/12/09 10:46:29;;;;;;;24.42;3.92;;;7.30;99.90;;;;;;5108815;28;20046;-46
2020/12/09 10:48:54;;;;;;;17.77;4.15;;;7.30;99.90;;;;;;5108764;28;20034;-44
2020/12/09 10:51:20;;;;;;;27.58;5.90;;;7.30;99.90;;;;;;5108810;28;20031;-44
2020/12/09 10:53:46;;;;;;;23.13;3.97;;;7.30;99.90;;;;;;5108380;28;20091;-44
2020/12/09 10:56:12;;;;;;;22.05;3.80;;;7.30;99.90;;;;;;5108557;28;20098;-46
2020/12/09 10:58:37;;;;;;;15.63;3.45;;;7.30;99.90;;;;;;5108157;28;20035;-46
2020/12/09 11:01:04;;;;;;;19.10;3.53;;;7.40;99.90;;;;;;5108299;28;20031;-46
2020/12/09 11:03:30;;;;;;;23.38;3.50;;;7.50;99.90;;;;;;5108254;28;20365;-46
2020/12/09 11:05:55;;;;;;;19.85;4.28;;;7.50;99.90;;;;;;5108833;28;20040;-44
2020/12/09 11:08:21;;;;;;;19.15;3.83;;;7.50;99.90;;;;;;5108307;28;20028;-44
2020/12/09 11:10:48;;;;;;;25.27;4.38;;;7.50;99.90;;;;;;5108347;28;20035;-47
2020/12/09 11:13:14;;;;;;;23.50;3.92;;;7.60;99.90;;;;;;5107417;28;20027;-47
2020/12/09 11:15:39;;;;;;;19.48;4.95;;;7.70;99.90;;;;;;5107739;28;20027;-47
2020/12/09 11:18:05;;;;;;;20.60;3.88;;;7.70;99.90;;;;;;5108435;28;20031;-46
2020/12/09 11:20:33;;;;;;;28.40;4.25;;;7.80;99.90;;;;;;5107876;28;20114;-44
2020/12/09 11:22:58;;;;;;;25.20;4.43;;;8.00;99.90;;;;;;5108318;28;20107;-47
2020/12/09 11:25:24;;;;;;;22.65;4.95;;;7.90;99.90;;;;;;5106870;28;20157;-47
2020/12/09 11:27:50;;;;;;;23.17;3.78;;;8.00;99.90;;;;;;5106255;28;20038;-46
2020/12/09 11:30:16;;;;;;;23.40;5.32;;;8.20;99.90;;;;;;5107557;28;20039;-48
2020/12/09 11:32:42;;;;;;;26.85;4.18;;;8.30;99.90;;;;;;5106909;28;20035;-47
2020/12/09 11:35:08;;;;;;;30.30;4.82;;;8.30;99.90;;;;;;5107544;28;20039;-44
2020/12/09 11:37:35;;;;;;;22.25;3.72;;;8.40;99.90;;;;;;5107249;28;20043;-44
2020/12/09 11:40:01;;;;;;;18.13;4.15;;;8.40;99.90;;;;;;5107872;28;20043;-44
2020/12/09 11:42:27;;;;;;;20.95;4.32;;;8.30;99.90;;;;;;5107558;28;20027;-44
2020/12/09 11:44:52;;;;;;;22.33;4.78;;;8.40;99.90;;;;;;5107862;28;20026;-45
2020/12/09 11:47:18;;;;;;;28.00;5.80;;;8.50;99.90;;;;;;5107498;28;20031;-47
2020/12/09 11:49:44;;;;;;;32.13;10.18;;;8.40;99.90;;;;;;5108178;28;20031;-45
2020/12/09 11:52:10;;;;;;;40.65;13.20;;;8.40;99.90;;;;;;5107673;28;20062;-44
2020/12/09 11:54:36;;;;;;;41.75;16.13;;;8.40;99.90;;;;;;5108393;28;20080;-45
2020/12/09 11:57:01;;;;;;;24.67;5.05;;;8.40;99.90;;;;;;5108117;28;20035;-45
2020/12/09 11:59:27;;;;;;;27.23;6.10;;;8.40;99.90;;;;;;5107954;28;20075;-44
2020/12/09 12:01:53;;;;;;;19.70;3.75;;;8.40;99.90;;;;;;5107923;28;20030;-46
2020/12/09 12:04:19;;;;;;;26.42;5.00;;;8.30;99.90;;;;;;5108320;28;20084;-47
2020/12/09 12:06:45;;;;;;;23.55;5.07;;;8.30;99.90;;;;;;5107923;28;20043;-46
2020/12/09 12:09:11;;;;;;;24.67;7.93;;;8.20;99.90;;;;;;5106817;28;20028;-46
2020/12/09 12:11:37;;;;;;;29.30;9.27;;;8.20;99.90;;;;;;5107369;28;20068;-47
2020/12/09 12:14:03;;;;;;;21.48;5.13;;;8.20;99.90;;;;;;5107080;28;20032;-44
2020/12/09 12:16:28;;;;;;;23.73;4.07;;;8.30;99.90;;;;;;5106197;28;20149;-44
2020/12/09 12:18:54;;;;;;;22.02;3.75;;;8.40;99.90;;;;;;5107643;28;20040;-45
2020/12/09 12:21:23;;;;;;;17.98;3.70;;;8.40;99.90;;;;;;5107967;28;20130;-46
2020/12/09 12:23:49;;;;;;;31.77;4.00;;;8.50;99.90;;;;;;5107353;28;20081;-44
2020/12/09 12:26:19;;;;;;;21.77;4.22;;;8.50;99.90;;;;;;5107542;28;20079;-44
2020/12/09 12:28:45;;;;;;;23.95;3.85;;;8.50;99.90;;;;;;5107330;28;20124;-45
2020/12/09 12:31:12;;;;;;;22.65;4.07;;;8.60;99.90;;;;;;5107780;28;20031;-47
2020/12/09 12:33:38;;;;;;;18.08;3.50;;;8.60;99.90;;;;;;5107287;28;20047;-47
2020/12/09 12:36:05;;;;;;;19.95;3.53;;;8.70;99.90;;;;;;5099368;28;20028;-47
2020/12/09 12:38:32;;;;;;;16.88;3.15;;;8.80;99.90;;;;;;5101790;28;20138;-47
2020/12/09 12:40:58;;;;;;;27.23;4.32;;;9.10;99.90;;;;;;5107569;28;20413;-46
2020/12/09 12:43:24;;;;;;;18.58;4.22;;;9.00;99.90;;;;;;5107281;28;20036;-44
2020/12/09 12:45:50;;;;;;;22.70;3.30;;;8.80;99.90;;;;;;5107416;28;20097;-46
2020/12/09 12:48:16;;;;;;;11.82;3.05;;;8.70;99.90;;;;;;5107339;28;20036;-47